Flight Track Log - Related Links

Times and Time Zones

All times are in EST time to prevent confusion due to time zone crossing. See the FIN666 flight status page for this flight to view local times or setup timezone preferences in your user account.


Time Position Orientation Groundspeed Altitude Reporting Facility
EST Latitude Longitude Course Direction KTS MPH feet Rate Location/Type
Wed 07:29:00 AM 55.8217 13.0768 49° Northeast  Level Estimated
Wed 07:30:00 AM 55.8894 13.2181 49° Northeast  Level Estimated
Wed 07:31:00 AM 55.9568 13.3599 50° Northeast  Level Estimated
Wed 07:32:00 AM 56.0241 13.5021 50° Northeast  Level Estimated
Wed 07:33:00 AM 56.0969 13.6569 50° Northeast  Level Estimated
Wed 07:34:00 AM 56.1695 13.8124 50° Northeast  Level Estimated
Wed 07:35:00 AM 56.2419 13.9684 50° Northeast  Level Estimated
Wed 07:36:00 AM 56.3141 14.1250 50° Northeast  Level Estimated
Wed 07:37:00 AM 56.3861 14.2822 50° Northeast  Level Estimated
Wed 07:38:00 AM 56.4579 14.4400 50° Northeast  Level Estimated
Wed 07:39:00 AM 56.5295 14.5983 51° Northeast  Level Estimated
Wed 07:40:00 AM 56.6010 14.7573 51° Northeast  Level Estimated
Wed 07:41:00 AM 56.6722 14.9169 51° Northeast  Level Estimated
Wed 07:42:00 AM 56.7432 15.0771 51° Northeast  Level Estimated
Wed 07:43:00 AM 56.8139 15.2379 51° Northeast  Level Estimated
Wed 07:44:00 AM 56.8845 15.3993 51° Northeast  Level Estimated
Wed 07:45:00 AM 56.9549 15.5613 51° Northeast  Level Estimated
Wed 07:46:00 AM 57.0251 15.7239 52° Northeast  Level Estimated
Wed 07:47:00 AM 57.0950 15.8871 52° Northeast  Level Estimated
Wed 07:48:00 AM 57.1648 16.0510 52° Northeast  Level Estimated
Wed 07:49:00 AM 57.2343 16.2155 52° Northeast  Level Estimated
Wed 07:50:00 AM 57.3036 16.3806 52° Northeast  Level Estimated
Wed 07:51:00 AM 57.3727 16.5463 52° Northeast  Level Estimated
Wed 07:52:00 AM 57.4416 16.7126 52° Northeast  Level Estimated
Wed 07:53:00 AM 57.5103 16.8796 53° Northeast  Level Estimated
Wed 07:54:00 AM 57.5787 17.0472 53° Northeast  Level Estimated
Wed 07:55:00 AM 57.6469 17.2154 53° Northeast  Level Estimated
Wed 07:56:00 AM 57.7149 17.3843 53° Northeast  Level Estimated
Wed 07:57:00 AM 57.7826 17.5537 53° Northeast  Level Estimated
Wed 07:58:00 AM 57.8502 17.7239 53° Northeast  Level Estimated
Wed 07:59:00 AM 57.9175 17.8946 53° Northeast  Level Estimated
Wed 08:00:00 AM 57.9846 18.0660 54° Northeast  Level Estimated
Wed 08:01:00 AM 58.0514 18.2381 54° Northeast  Level Estimated
Wed 08:02:00 AM 58.1180 18.4108 54° Northeast  Level Estimated
Wed 08:03:00 AM 58.1844 18.5841 54° Northeast  Level Estimated
Wed 08:04:00 AM 58.2505 18.7581 54° Northeast  Level Estimated
Wed 08:05:00 AM 58.3165 18.9327 54° Northeast  Level Estimated
Wed 08:06:00 AM 58.3821 19.1080 54° Northeast  Level Estimated
Wed 08:07:00 AM 58.4476 19.2840 55° Northeast  Level Estimated
Wed 08:08:00 AM 58.5127 19.4606 55° Northeast  Level Estimated
Wed 08:09:00 AM 58.5777 19.6378 55° Northeast  Level Estimated
Wed 08:10:00 AM 58.6424 19.8157 55° Northeast  Level Estimated
Wed 08:11:00 AM 58.7068 19.9943 55° Northeast  Level Estimated
Wed 08:12:00 AM 58.7710 20.1735 55° Northeast  Level Estimated
Wed 08:13:00 AM 58.8350 20.3534 55° Northeast  Level Estimated
Wed 08:14:00 AM 58.8987 20.5339 56° Northeast  Level Estimated
Wed 08:15:00 AM 58.9621 20.7152 56° Northeast  Level Estimated
Wed 08:16:00 AM 59.0253 20.8970 56° Northeast  Level Estimated
Wed 08:17:00 AM 59.0883 21.0796 56° Northeast  Level Estimated
Wed 08:18:00 AM 59.1510 21.2628 56° Northeast  Level Estimated
Wed 08:19:00 AM 59.2134 21.4467 56° Northeast  Level Estimated
Wed 08:20:00 AM 59.2747 21.6287 57° Northeast  Level Estimated
Wed 08:21:00 AM 59.3357 21.8113 57° Northeast  Level Estimated
Wed 08:22:00 AM 59.3965 21.9947 57° Northeast  Level Estimated
Wed 08:23:00 AM 59.4570 22.1786 57° Northeast  Level Estimated
Wed 08:24:00 AM 59.5173 22.3633 57° Northeast  Level Estimated
Wed 08:25:00 AM 59.5773 22.5485 57° Northeast  Level Estimated
Wed 08:26:00 AM 59.6371 22.7345 57° Northeast  Level Estimated
Wed 08:27:00 AM 59.6965 22.9211 58° Northeast  Level Estimated
Wed 08:28:00 AM 59.7558 23.1084 58° Northeast  Level Estimated
Wed 08:29:00 AM 59.8147 23.2963 58° Northeast  Level Estimated
Wed 08:30:00 AM 59.8734 23.4849 58° Northeast  Level Estimated
Wed 08:31:00 AM 59.9318 23.6742 58° Northeast  Level Estimated
Wed 08:32:00 AM 59.9899 23.8641 58° Northeast  Level Estimated
Wed 08:33:00 AM 60.0478 24.0547 59° Northeast  Level Estimated
Wed 08:34:00 AM 60.1054 24.2459 59° Northeast  Level Estimated
Wed 08:35:00 AM 60.1627 24.4379 59° Northeast  Level Estimated
Wed 08:36:00 AM 60.2198 24.6305 59° Northeast  Level Estimated
Wed 08:37:00 AM 60.2765 24.8237 59° Northeast  Level Estimated
Wed 08:38:00 AM 60.3172 24.9633 59° Northeast  Level Estimated
Wed 08:39:00 AM 60.3172 24.9633 37° Northeast  Level Estimated
Wed 08:40:00 AM 60.3172 24.9633 37° Northeast  Level Estimated
Wed 08:41:00 AM 60.3172 24.9633 37° Northeast  Level Estimated
Wed 08:42:00 AM 60.3172 24.9633 37° Northeast  Level Estimated
Wed 08:43:00 AM 60.3172 24.9633 37° Northeast  Level Estimated
Wed 08:44:00 AM 60.3172 24.9633 37° Northeast  Level Estimated
Wed 08:45:00 AM 60.3172 24.9633 37° Northeast  Level Estimated
Wed 08:46:00 AM 60.3172 24.9633 37° Northeast  Level Estimated
Wed 08:47:00 AM 60.3172 24.9633 37° Northeast  Level Estimated
Wed 08:48:00 AM 60.3172 24.9633 37° Northeast  Level Estimated
Wed 08:49:00 AM 60.3172 24.9633 37° Northeast  Level Estimated
Wed 08:50:00 AM 60.3172 24.9633 37° Northeast  Level Estimated

Login

Don't have an account? Register now (free) for customized features, flight alerts, and more!